Airfield :
LOGIN :

Register | Disclaimer

   EN    FR    IT 

 










Legend :    VFR   Marginal VFR   IFR   Intensive IFR   Very Intensive IFR
Visi :
Ceiling :
>= 8 km
>= 3000ft
5 to 8 km
1000 to 3000 ft
1500m to 5 km
500 to 1000 ft
800 to 1500m
200 to 500 ft
< 800m
< 200 ft
Symbols :   Thunderstorms  Fog  Heavy snow  Heavy precipitations  Wind > 20 kt
SIGMETs :     Misc.  Thunderstorms  Icing  Turbulence  Mountain Waves  Volcanic Ashes






- Airport Elevation : 138 ft
- IATA code : BIO


LEBB - Bilbao

CURRENT METAR :
  • 221130Z VRB02KT 9999 FEW014 SCT038 BKN046 15/13 Q1025 TEMPO 3000 RA

EXPIRED METARs :
  • 221100Z VRB03KT 9999 FEW014 SCT030 BKN042 14/13 Q1025 TEMPO 3000 RA
  • 221051Z VRB02KT 9999 FEW014 SCT030 BKN042 14/13 Q1025 TEMPO 3000 RA
  • 221040Z 36003KT 300V050 4000 -RA BR FEW014 BKN032 14/12 Q1025 TEMPO RA
  • 221000Z 27004KT 230V320 9000 -RA FEW014 SCT026 BKN037 15/13 Q1025 TEMPO 3000 RA
  • 220930Z VRB01KT 9999 FEW006 BKN032 14/14 Q1024 TEMPO 3000 RA
  • 220900Z 29002KT 9999 FEW006 BKN030 14/13 Q1024 TEMPO 3000 RA

TAF TAF LEBB
Valid from the 22 at 12:00 until the 23 at 12:00 UTC


221100Z 2212/2312 33008KT 9999 SCT020 BKN035 TX16/2213Z TN08/2305Z
PROB30
TEMPO 2212/2214 4000 RA SHRA FEW030TCU



MET'MAP, your aeronautical weather chart ! - Copyright ORBIFLY December 2007 - Disclaimer

ORBIFLY MET'MAP TEAM :

Programming & Development : Alexandra Zaïnal
Concept & original design : Baudouin d'Aumeries
Assistance for programming : Marc-Olivier Méhu
Technical & hardware support : Manuel Goepfert

Contact : metmap@orbifly.com




SOURCES & CREDITS :

   NOAA